createdAt,value
2018-08-10T00:01:36.033Z,19.10
2018-08-10T00:04:05.269Z,19.10
2018-08-10T00:06:34.379Z,19.00
2018-08-10T00:09:03.900Z,19.00
2018-08-10T00:11:45.078Z,19.00
2018-08-10T00:14:14.180Z,19.00
2018-08-10T00:16:43.396Z,18.90
2018-08-10T00:19:12.707Z,18.80
2018-08-10T00:21:42.028Z,18.70
2018-08-10T00:24:11.322Z,18.70
2018-08-10T00:26:40.432Z,18.70
2018-08-10T00:29:09.413Z,18.70
2018-08-10T00:31:38.678Z,18.60
2018-08-10T00:34:07.691Z,18.60
2018-08-10T00:36:36.876Z,18.70
2018-08-10T00:39:10.579Z,18.70
2018-08-10T00:41:39.928Z,18.80
2018-08-10T00:44:08.830Z,18.70
2018-08-10T00:46:37.665Z,18.60
2018-08-10T00:49:06.954Z,18.60
2018-08-10T00:51:36.038Z,18.70
2018-08-10T00:54:05.061Z,18.60
2018-08-10T00:56:34.261Z,18.60
2018-08-10T00:59:03.268Z,18.60
2018-08-10T01:01:32.304Z,18.50
2018-08-10T01:04:01.648Z,18.60
2018-08-10T01:06:30.925Z,18.60
2018-08-10T01:09:00.204Z,18.60
2018-08-10T01:11:29.385Z,18.50
2018-08-10T01:13:58.583Z,18.50
2018-08-10T01:16:27.621Z,18.60
2018-08-10T01:18:56.952Z,18.60
2018-08-10T01:21:26.004Z,18.50
2018-08-10T01:23:55.150Z,18.40
2018-08-10T01:26:24.252Z,18.40
2018-08-10T01:28:53.527Z,18.40
2018-08-10T01:31:22.917Z,18.50
2018-08-10T01:33:51.979Z,18.40
2018-08-10T01:36:21.126Z,18.40
2018-08-10T01:38:50.240Z,18.40
2018-08-10T01:41:19.316Z,18.40
2018-08-10T01:43:48.345Z,18.40
2018-08-10T01:46:18.554Z,18.40
2018-08-10T01:48:47.536Z,18.30
2018-08-10T01:51:16.704Z,18.30
2018-08-10T01:53:45.836Z,18.30
2018-08-10T01:56:15.117Z,18.30
2018-08-10T01:58:44.125Z,18.30
2018-08-10T02:01:13.295Z,18.30
2018-08-10T02:03:42.468Z,18.30
2018-08-10T02:06:11.915Z,18.30
2018-08-10T02:08:40.812Z,18.20
2018-08-10T02:11:10.004Z,18.20
2018-08-10T02:13:39.087Z,18.10
2018-08-10T02:16:08.103Z,18.10
2018-08-10T02:18:37.327Z,18.20
2018-08-10T02:21:06.596Z,18.10
2018-08-10T02:23:35.711Z,17.90
2018-08-10T02:26:04.911Z,17.90
2018-08-10T02:28:33.932Z,17.90
2018-08-10T02:31:03.118Z,17.90
2018-08-10T02:33:32.028Z,17.80
2018-08-10T02:36:01.128Z,17.70
2018-08-10T02:38:30.403Z,17.70
2018-08-10T02:40:59.681Z,17.60
2018-08-10T02:43:28.885Z,17.60
2018-08-10T02:45:58.050Z,17.50
2018-08-10T02:48:27.305Z,17.40
2018-08-10T02:50:56.512Z,17.30
2018-08-10T02:53:25.668Z,17.30
2018-08-10T02:55:54.761Z,17.20
2018-08-10T02:58:25.096Z,17.20
2018-08-10T03:00:54.213Z,17.10
2018-08-10T03:03:23.508Z,17.10
2018-08-10T03:05:52.981Z,17.00
2018-08-10T03:08:22.213Z,17.00
2018-08-10T03:10:51.186Z,17.10
2018-08-10T03:13:20.370Z,17.10
2018-08-10T03:15:49.451Z,17.10
2018-08-10T03:18:19.077Z,17.10
2018-08-10T03:20:48.358Z,17.20
2018-08-10T03:23:17.668Z,17.10
2018-08-10T03:25:46.816Z,17.20
2018-08-10T03:28:15.986Z,17.10
2018-08-10T03:30:45.126Z,17.10
2018-08-10T03:33:15.391Z,17.00
2018-08-10T03:35:44.614Z,16.90
2018-08-10T03:38:13.724Z,16.90
2018-08-10T03:40:43.410Z,16.90
2018-08-10T03:43:12.453Z,16.80
2018-08-10T03:45:41.510Z,16.70
2018-08-10T03:48:10.818Z,16.80
2018-08-10T03:50:40.188Z,16.70
2018-08-10T03:53:09.625Z,16.70
2018-08-10T03:55:38.806Z,16.70
2018-08-10T03:58:08.040Z,16.60
2018-08-10T04:00:37.321Z,16.60
2018-08-10T04:03:06.692Z,16.60
2018-08-10T04:05:35.950Z,16.50
2018-08-10T04:08:05.247Z,16.50
2018-08-10T04:10:34.478Z,16.50
2018-08-10T04:13:03.679Z,16.50
2018-08-10T04:15:32.829Z,16.50
2018-08-10T04:18:02.253Z,16.50
2018-08-10T04:20:31.398Z,16.60
2018-08-10T04:23:00.649Z,16.60
2018-08-10T04:25:30.199Z,16.50
2018-08-10T04:27:59.492Z,16.50
2018-08-10T04:30:28.938Z,16.50
2018-08-10T04:32:58.034Z,16.50
2018-08-10T04:35:27.169Z,16.60
2018-08-10T04:37:56.268Z,16.60
2018-08-10T04:40:25.406Z,16.50
2018-08-10T04:42:54.538Z,16.40
2018-08-10T04:45:23.673Z,16.40
2018-08-10T04:47:52.972Z,16.50
2018-08-10T04:50:22.298Z,16.50
2018-08-10T04:52:51.483Z,16.60
2018-08-10T04:55:20.635Z,16.50
2018-08-10T04:57:49.745Z,16.50
2018-08-10T05:00:19.002Z,16.50
2018-08-10T05:02:48.356Z,16.50
2018-08-10T05:05:17.663Z,16.50
2018-08-10T05:07:46.538Z,16.60
2018-08-10T05:10:15.687Z,16.60
2018-08-10T05:12:44.706Z,16.60
2018-08-10T05:15:14.030Z,16.60
2018-08-10T05:17:44.199Z,16.70
2018-08-10T05:20:13.208Z,16.70
2018-08-10T05:22:42.650Z,16.60
2018-08-10T05:25:11.722Z,16.60
2018-08-10T05:27:40.736Z,16.70
2018-08-10T05:30:11.072Z,16.70
2018-08-10T05:32:46.776Z,16.60
2018-08-10T05:35:15.893Z,16.70
2018-08-10T05:37:44.978Z,16.70
2018-08-10T05:40:14.147Z,16.70
2018-08-10T05:42:49.381Z,16.60
2018-08-10T05:45:18.592Z,16.60
2018-08-10T05:47:47.711Z,16.70
2018-08-10T05:50:16.874Z,16.70
2018-08-10T05:52:45.972Z,16.60
2018-08-10T05:55:15.160Z,16.70
2018-08-10T05:57:44.407Z,16.80
2018-08-10T06:00:13.502Z,16.60
2018-08-10T06:02:42.606Z,16.70
2018-08-10T06:05:11.820Z,16.70
2018-08-10T06:07:41.007Z,16.90
2018-08-10T06:10:10.972Z,16.80
2018-08-10T06:12:40.085Z,16.80
2018-08-10T06:15:10.360Z,16.90
2018-08-10T06:17:39.471Z,17.20
2018-08-10T06:20:09.914Z,17.30
2018-08-10T06:22:39.119Z,17.30
2018-08-10T06:25:08.898Z,17.50
2018-08-10T06:27:38.282Z,17.70
2018-08-10T06:30:10.151Z,17.60
2018-08-10T06:32:39.209Z,18.10
2018-08-10T06:35:08.969Z,17.90
2018-08-10T06:37:38.294Z,18.00
2018-08-10T06:40:07.491Z,18.10
2018-08-10T06:42:36.600Z,18.20
2018-08-10T06:45:05.734Z,18.20
2018-08-10T06:47:34.809Z,18.30
2018-08-10T06:50:04.190Z,18.40
2018-08-10T06:52:33.064Z,18.20
2018-08-10T06:55:02.133Z,18.70
2018-08-10T06:57:41.204Z,19.50
2018-08-10T07:00:14.076Z,19.50
2018-08-10T07:02:43.420Z,19.00
2018-08-10T07:05:12.501Z,19.30
2018-08-10T07:07:41.574Z,19.70
2018-08-10T07:10:11.712Z,19.70
2018-08-10T07:12:41.031Z,19.90
2018-08-10T07:15:10.313Z,19.90
2018-08-10T07:17:39.764Z,20.50
2018-08-10T07:20:09.079Z,20.40
2018-08-10T07:22:38.402Z,20.00
2018-08-10T07:25:07.711Z,19.60
2018-08-10T07:27:36.892Z,19.40
2018-08-10T07:30:06.495Z,19.90
2018-08-10T07:32:35.773Z,20.00
2018-08-10T07:35:04.994Z,19.80
2018-08-10T07:37:34.198Z,20.10
2018-08-10T07:40:03.441Z,20.60
2018-08-10T07:42:32.599Z,20.70
2018-08-10T07:45:01.997Z,21.00
2018-08-10T07:47:30.796Z,20.90
2018-08-10T07:49:59.539Z,21.50
2018-08-10T07:52:28.361Z,21.70
2018-08-10T07:54:57.369Z,21.70
2018-08-10T07:57:26.267Z,21.50
2018-08-10T07:59:55.059Z,21.00
2018-08-10T08:02:23.974Z,21.00
2018-08-10T08:04:52.811Z,20.90
2018-08-10T08:07:21.907Z,20.70
2018-08-10T08:09:50.712Z,21.10
2018-08-10T08:12:19.880Z,22.10
2018-08-10T08:14:49.136Z,22.00
2018-08-10T08:17:21.197Z,21.40
2018-08-10T08:19:50.076Z,21.80
2018-08-10T08:22:20.922Z,22.10
2018-08-10T08:24:50.107Z,22.00
2018-08-10T08:27:19.956Z,21.60
2018-08-10T08:29:49.305Z,21.30
2018-08-10T08:32:18.419Z,22.00
2018-08-10T08:34:47.494Z,22.20
2018-08-10T08:37:16.644Z,22.30
2018-08-10T08:40:25.478Z,22.00
2018-08-10T08:42:54.374Z,22.20
2018-08-10T08:46:02.123Z,21.90
2018-08-10T08:48:33.181Z,22.10
2018-08-10T08:51:04.055Z,22.20
2018-08-10T08:53:33.150Z,22.40
2018-08-10T08:56:03.591Z,22.70
2018-08-10T08:58:33.430Z,22.60
2018-08-10T09:01:02.885Z,22.90
2018-08-10T09:03:43.032Z,23.60
2018-08-10T09:06:12.185Z,23.00
2018-08-10T09:08:50.875Z,23.10
2018-08-10T09:11:20.224Z,22.40
2018-08-10T09:15:00.874Z,23.10
2018-08-10T09:17:33.901Z,23.50
2018-08-10T09:20:07.219Z,24.00
2018-08-10T09:22:39.629Z,24.30
2018-08-10T09:25:12.208Z,24.40
2018-08-10T09:27:43.259Z,24.40
2018-08-10T09:30:19.306Z,23.80
2018-08-10T09:32:50.811Z,23.70
2018-08-10T09:35:24.771Z,24.20
2018-08-10T09:37:57.496Z,24.10
2018-08-10T09:40:30.848Z,23.90
2018-08-10T09:43:02.203Z,24.00
2018-08-10T09:45:40.310Z,24.30
2018-08-10T09:48:12.784Z,24.20
2018-08-10T09:50:45.360Z,24.50
2018-08-10T09:53:21.114Z,24.50
2018-08-10T09:55:52.392Z,24.30
2018-08-10T09:58:24.320Z,24.50
2018-08-10T10:00:57.408Z,25.00
2018-08-10T10:03:30.788Z,25.70
2018-08-10T10:06:03.720Z,25.10
2018-08-10T10:08:36.472Z,25.10
2018-08-10T10:11:08.333Z,25.20
2018-08-10T10:13:40.571Z,25.50
2018-08-10T10:16:12.605Z,25.80
2018-08-10T10:18:44.040Z,26.20
2018-08-10T10:21:21.607Z,26.50
2018-08-10T10:23:53.288Z,26.50
2018-08-10T10:26:26.173Z,26.90
2018-08-10T10:28:59.138Z,26.60
2018-08-10T10:31:32.128Z,26.50
2018-08-10T10:34:03.695Z,26.70
2018-08-10T10:36:34.936Z,27.10
2018-08-10T10:39:13.958Z,27.10
2018-08-10T10:41:45.520Z,27.20
2018-08-10T10:44:22.601Z,27.30
2018-08-10T10:46:54.968Z,27.70
2018-08-10T10:49:25.600Z,27.90
2018-08-10T10:51:58.691Z,27.90
2018-08-10T10:54:30.960Z,27.60
2018-08-10T10:57:04.253Z,27.60
2018-08-10T10:59:34.989Z,27.40
2018-08-10T11:02:08.687Z,27.70
2018-08-10T11:04:42.602Z,28.10
2018-08-10T11:07:16.306Z,28.10
2018-08-10T11:09:47.860Z,27.60
2018-08-10T11:12:19.177Z,28.20
2018-08-10T11:14:52.198Z,28.40
2018-08-10T11:17:25.593Z,28.60
2018-08-10T11:19:59.942Z,28.90
2018-08-10T11:22:31.464Z,29.10
2018-08-10T11:25:04.335Z,29.00
2018-08-10T11:27:37.623Z,29.10
2018-08-10T11:30:10.182Z,29.20
2018-08-10T11:32:43.385Z,29.20
2018-08-10T11:35:17.220Z,29.20
2018-08-10T11:37:51.408Z,29.10
2018-08-10T11:40:24.599Z,29.00
2018-08-10T11:42:57.519Z,29.10
2018-08-10T11:45:31.629Z,29.20
2018-08-10T11:48:06.838Z,28.90
2018-08-10T11:50:39.854Z,28.70
2018-08-10T11:53:12.230Z,28.50
2018-08-10T11:55:45.316Z,28.20
2018-08-10T11:58:17.547Z,28.10
2018-08-10T12:00:50.985Z,28.00
2018-08-10T12:03:24.695Z,27.60
2018-08-10T12:05:58.389Z,27.00
2018-08-10T12:08:32.663Z,26.90
2018-08-10T12:11:06.005Z,26.80
2018-08-10T12:13:41.604Z,26.60
2018-08-10T12:16:14.395Z,26.60
2018-08-10T12:18:47.436Z,26.70
2018-08-10T12:21:19.900Z,26.80
2018-08-10T12:23:51.490Z,26.80
2018-08-10T12:26:24.854Z,26.70
2018-08-10T12:28:58.202Z,26.70
2018-08-10T12:31:32.053Z,26.30
2018-08-10T12:34:04.085Z,26.30
2018-08-10T12:36:36.759Z,26.50
2018-08-10T12:39:16.128Z,26.70
2018-08-10T12:41:50.384Z,26.90
2018-08-10T12:44:25.840Z,27.00
2018-08-10T12:46:57.964Z,27.50
2018-08-10T12:49:32.335Z,27.80
2018-08-10T12:52:05.682Z,27.90
2018-08-10T12:54:38.361Z,28.10
2018-08-10T12:57:18.111Z,27.90
2018-08-10T12:59:51.205Z,27.50
2018-08-10T13:02:25.236Z,28.40
2018-08-10T13:04:59.034Z,28.90
2018-08-10T13:07:32.000Z,29.20
2018-08-10T13:10:08.282Z,29.60
2018-08-10T13:12:42.582Z,29.80
2018-08-10T13:15:16.814Z,29.10
2018-08-10T13:17:48.877Z,29.50
2018-08-10T13:20:24.320Z,30.10
2018-08-10T13:22:57.603Z,30.10
2018-08-10T13:25:32.647Z,30.30
2018-08-10T13:28:06.137Z,30.10
2018-08-10T13:30:38.206Z,29.70
2018-08-10T13:33:13.860Z,29.20
2018-08-10T13:35:49.505Z,28.60
2018-08-10T13:38:24.128Z,26.80
2018-08-10T13:40:56.414Z,27.00
2018-08-10T13:43:28.811Z,26.90
2018-08-10T13:46:02.135Z,27.00
2018-08-10T13:48:35.055Z,26.50
2018-08-10T13:51:08.687Z,25.80
2018-08-10T13:53:41.950Z,26.00
2018-08-10T13:56:16.994Z,25.90
2018-08-10T13:58:49.986Z,25.80
2018-08-10T14:01:24.888Z,26.10
2018-08-10T14:03:58.058Z,25.60
2018-08-10T14:06:34.377Z,25.40
2018-08-10T14:09:09.889Z,25.60
2018-08-10T14:11:46.991Z,25.60
2018-08-10T14:14:19.466Z,25.70
2018-08-10T14:16:54.913Z,25.80
2018-08-10T14:19:31.301Z,25.80
2018-08-10T14:22:05.702Z,25.90
2018-08-10T14:24:40.120Z,26.10
2018-08-10T14:27:14.102Z,25.80
2018-08-10T14:29:48.655Z,25.70
2018-08-10T14:32:23.382Z,26.30
2018-08-10T14:35:01.183Z,26.50
2018-08-10T14:37:41.270Z,27.30
2018-08-10T14:40:16.168Z,28.10
2018-08-10T14:42:48.542Z,27.90
2018-08-10T14:45:26.604Z,28.40
2018-08-10T14:48:00.967Z,28.00
2018-08-10T14:50:37.332Z,28.00
2018-08-10T14:53:11.768Z,27.40
2018-08-10T14:55:48.849Z,27.70
2018-08-10T14:58:23.360Z,27.90
2018-08-10T15:00:56.757Z,27.90
2018-08-10T15:03:34.971Z,27.40
2018-08-10T15:06:09.285Z,27.30
2018-08-10T15:08:41.864Z,27.20
2018-08-10T15:11:13.838Z,27.00
2018-08-10T15:13:47.022Z,26.60
2018-08-10T15:16:20.006Z,26.50
2018-08-10T15:18:53.812Z,26.60
2018-08-10T15:21:27.925Z,26.70
2018-08-10T15:24:05.213Z,27.00
2018-08-10T15:26:41.789Z,27.20
2018-08-10T15:29:18.816Z,27.50
2018-08-10T15:31:54.712Z,28.00
2018-08-10T15:34:34.366Z,28.30
2018-08-10T15:37:09.482Z,28.30
2018-08-10T15:39:47.611Z,28.50
2018-08-10T15:42:24.387Z,28.80
2018-08-10T15:45:00.446Z,29.10
2018-08-10T15:47:34.866Z,29.30
2018-08-10T15:50:10.313Z,29.50
2018-08-10T15:52:48.721Z,29.70
2018-08-10T15:55:22.016Z,29.50
2018-08-10T15:57:56.134Z,29.50
2018-08-10T16:00:43.047Z,30.20
2018-08-10T16:03:19.107Z,30.70
2018-08-10T16:05:54.246Z,30.40
2018-08-10T16:08:30.538Z,30.30
2018-08-10T16:11:05.647Z,30.10
2018-08-10T16:13:38.838Z,29.30
2018-08-10T16:16:13.362Z,28.60
2018-08-10T16:18:47.683Z,28.30
2018-08-10T16:21:19.542Z,27.80
2018-08-10T16:23:51.505Z,27.80
2018-08-10T16:26:26.438Z,27.30
2018-08-10T16:28:59.595Z,27.70
2018-08-10T16:31:31.091Z,27.20
2018-08-10T16:34:01.700Z,26.70
2018-08-10T16:39:40.368Z,26.60
2018-08-10T16:42:49.233Z,27.10
2018-08-10T16:45:28.468Z,27.50
2018-08-10T16:48:15.035Z,27.70
2018-08-10T16:51:08.922Z,27.50
2018-08-10T16:53:49.341Z,28.00
2018-08-10T16:56:17.958Z,27.80
2018-08-10T16:58:46.556Z,27.80
2018-08-10T17:01:15.088Z,27.80
2018-08-10T17:03:43.660Z,28.00
2018-08-10T17:06:12.225Z,28.00
2018-08-10T17:08:40.849Z,28.30
2018-08-10T17:11:09.397Z,28.10
2018-08-10T17:13:37.948Z,27.70
2018-08-10T17:16:06.620Z,28.00
2018-08-10T17:18:35.145Z,27.80
2018-08-10T17:21:03.708Z,27.60
2018-08-10T17:23:36.200Z,27.60
2018-08-10T17:26:04.787Z,27.50
2018-08-10T17:28:33.291Z,27.30
2018-08-10T17:31:01.953Z,27.30
2018-08-10T17:33:30.519Z,27.20
2018-08-10T17:35:59.013Z,26.90
2018-08-10T17:41:23.835Z,26.00
2018-08-10T17:43:52.868Z,26.10
2018-08-10T17:46:21.406Z,25.90
2018-08-10T17:48:49.964Z,25.70
2018-08-10T17:51:18.539Z,25.90
2018-08-10T17:53:47.289Z,25.80
2018-08-10T17:56:15.807Z,25.80
2018-08-10T17:58:44.165Z,25.80
2018-08-10T18:01:12.540Z,25.80
2018-08-10T18:03:40.826Z,25.70
2018-08-10T18:06:09.162Z,25.70
2018-08-10T18:08:37.495Z,25.70
2018-08-10T18:11:05.995Z,25.80
2018-08-10T18:13:34.328Z,25.80
2018-08-10T18:16:02.679Z,25.90
2018-08-10T18:18:30.987Z,25.80
2018-08-10T18:20:59.268Z,25.80
2018-08-10T18:23:27.613Z,25.80
2018-08-10T18:25:56.023Z,25.70
2018-08-10T18:28:39.155Z,25.70
2018-08-10T18:31:08.534Z,25.60
2018-08-10T18:33:43.021Z,25.50
2018-08-10T18:36:12.099Z,25.40
2018-08-10T18:38:41.083Z,25.30
2018-08-10T18:41:10.184Z,25.10
2018-08-10T18:43:46.424Z,25.00
2018-08-10T18:46:19.197Z,24.80
2018-08-10T18:48:48.252Z,24.70
2018-08-10T18:51:17.297Z,24.60
2018-08-10T18:53:46.640Z,24.40
2018-08-10T18:56:15.825Z,24.30
2018-08-10T18:58:50.415Z,24.20
2018-08-10T19:01:19.550Z,24.10
2018-08-10T19:03:48.787Z,23.90
2018-08-10T19:06:17.716Z,23.80
2018-08-10T19:08:46.883Z,23.70
2018-08-10T19:11:16.059Z,23.50
2018-08-10T19:13:45.217Z,23.40
2018-08-10T19:16:14.279Z,23.30
2018-08-10T19:18:43.244Z,23.20
2018-08-10T19:21:12.232Z,23.10
2018-08-10T19:23:41.225Z,22.90
2018-08-10T19:26:10.451Z,22.80
2018-08-10T19:28:39.716Z,22.70
2018-08-10T19:31:08.804Z,22.60
2018-08-10T19:33:44.082Z,22.50
2018-08-10T19:36:13.107Z,22.40
2018-08-10T19:38:42.340Z,22.30
2018-08-10T19:41:11.608Z,22.20
2018-08-10T19:43:40.892Z,22.10
2018-08-10T19:46:10.222Z,21.90
2018-08-10T19:48:39.267Z,21.90
2018-08-10T19:51:08.443Z,21.70
2018-08-10T19:53:37.522Z,21.70
2018-08-10T19:59:12.156Z,21.40
2018-08-10T20:01:41.075Z,21.30
2018-08-10T20:04:10.165Z,21.20
2018-08-10T20:06:39.157Z,21.10
2018-08-10T20:09:21.259Z,21.10
2018-08-10T20:11:50.585Z,20.90
2018-08-10T20:14:19.861Z,20.80
2018-08-10T20:16:54.189Z,20.80
2018-08-10T20:19:23.328Z,20.70
2018-08-10T20:21:52.351Z,20.50
2018-08-10T20:24:21.316Z,20.50
2018-08-10T20:26:50.253Z,20.40
2018-08-10T20:29:19.329Z,20.30
2018-08-10T20:31:48.539Z,20.20
2018-08-10T20:34:17.527Z,20.20
2018-08-10T20:36:46.768Z,20.10
2018-08-10T20:39:17.948Z,20.00
2018-08-10T20:41:50.741Z,19.90
2018-08-10T20:44:19.831Z,19.80
2018-08-10T20:46:48.838Z,19.80
2018-08-10T20:49:18.021Z,19.70
2018-08-10T20:51:47.315Z,19.60
2018-08-10T20:54:16.540Z,19.60
2018-08-10T20:56:45.860Z,19.50
2018-08-10T20:59:15.176Z,19.40
2018-08-10T21:01:44.437Z,19.30
2018-08-10T21:04:13.542Z,19.20
2018-08-10T21:06:42.528Z,19.20
2018-08-10T21:09:13.112Z,19.10
2018-08-10T21:11:43.035Z,19.00
2018-08-10T21:14:12.050Z,18.90
2018-08-10T21:16:41.390Z,18.80
2018-08-10T21:19:10.635Z,18.90
2018-08-10T21:21:39.709Z,18.80
2018-08-10T21:24:08.834Z,18.80
2018-08-10T21:26:37.824Z,18.80
2018-08-10T21:29:06.749Z,18.70
2018-08-10T21:31:35.952Z,18.70
2018-08-10T21:34:15.499Z,18.70
2018-08-10T21:36:44.980Z,18.70
2018-08-10T21:39:14.050Z,18.70
2018-08-10T21:41:43.020Z,18.70
2018-08-10T21:44:12.495Z,18.60
2018-08-10T21:46:58.833Z,18.60
2018-08-10T21:49:27.870Z,18.60
2018-08-10T21:51:56.972Z,18.50
2018-08-10T21:54:25.969Z,18.40
2018-08-10T21:56:55.169Z,18.50
2018-08-10T21:59:24.330Z,18.50
2018-08-10T22:01:53.489Z,18.50
2018-08-10T22:04:22.740Z,18.40
2018-08-10T22:06:51.972Z,18.50
2018-08-10T22:09:21.028Z,18.40
2018-08-10T22:11:50.154Z,18.40
2018-08-10T22:14:24.372Z,18.40
2018-08-10T22:16:58.860Z,18.40
2018-08-10T22:19:28.419Z,18.30
2018-08-10T22:21:58.360Z,18.30
2018-08-10T22:24:27.588Z,18.30
2018-08-10T22:26:57.179Z,18.30
2018-08-10T22:29:26.592Z,18.30
2018-08-10T22:31:56.434Z,18.30
2018-08-10T22:34:25.395Z,18.30
2018-08-10T22:36:54.366Z,18.30
2018-08-10T22:39:30.105Z,18.30
2018-08-10T22:41:59.889Z,18.20
2018-08-10T22:44:29.550Z,18.20
2018-08-10T22:46:58.346Z,18.20
2018-08-10T22:49:33.906Z,18.20
2018-08-10T22:52:03.037Z,18.20
2018-08-10T22:54:31.961Z,18.20
2018-08-10T22:57:01.081Z,18.20
2018-08-10T22:59:30.099Z,18.10
2018-08-10T23:01:59.424Z,18.10
2018-08-10T23:04:28.431Z,18.20
2018-08-10T23:06:57.386Z,18.10
2018-08-10T23:09:26.625Z,18.00
2018-08-10T23:11:55.815Z,18.10
2018-08-10T23:14:24.875Z,18.10
2018-08-10T23:16:54.181Z,18.10
2018-08-10T23:19:23.607Z,18.10
2018-08-10T23:21:52.678Z,18.10
2018-08-10T23:24:21.883Z,18.00
2018-08-10T23:26:51.040Z,18.00
2018-08-10T23:29:19.950Z,17.90
2018-08-10T23:31:50.123Z,17.90
2018-08-10T23:34:18.992Z,17.90
2018-08-10T23:36:47.939Z,17.90
2018-08-10T23:39:16.832Z,17.90
2018-08-10T23:41:45.986Z,17.90
2018-08-10T23:44:15.178Z,17.90
2018-08-10T23:46:44.494Z,17.90
2018-08-10T23:49:13.562Z,17.90
2018-08-10T23:51:44.593Z,17.90
2018-08-10T23:54:15.783Z,17.70
2018-08-10T23:56:45.061Z,17.70
2018-08-10T23:59:14.320Z,17.60
